Terminal Aerodrome Forecast
Issued by NWS

Home | Current Version | Previous Version | Text Only | Print | Product List | Glossary On
Versions: 1 2 3 4 5 6 7 8 9 10 11 12
000
FTUS42 TJSJ 291100
TAFJBQ
TAF
TJBQ 291130Z 2912/3012 10005KT P6SM FEW025 SCT040
     FM291330 08013KT P6SM FEW025 SCT050
     FM291630 08015G25KT P6SM VCTS SCT025CB BKN050
      TEMPO 2917/2920 4SM TSRA BKN030CB
     FM292330 10005KT P6SM FEW025=

USA.gov is the U.S. government's official web portal to all federal, state and local government web resources and services.